Time;durP1;ratioP1;P1;durP2;ratioP2;P2;SDS_P1;SDS_P2;PMS_P1;PMS_P2;Temp;Humidity;BMP_temperature;BMP_pressure;BME280_temperature;BME280_humidity;BME280_pressure;Samples;Min_cycle;Max_cycle;Signal;HPM_P1;HPM_P2
2022/04/28 00:02:09;;;;;;;13.27;5.60;;;;;;;11.27;49.08;102786.47;5086995;28;20048;-62
2022/04/28 00:04:37;;;;;;;12.93;5.95;;;;;;;11.28;48.98;102783.50;5086958;28;20051;-62
2022/04/28 00:07:03;;;;;;;14.73;5.90;;;;;;;11.16;49.25;102787.97;5088366;28;20115;-62
2022/04/28 00:09:28;;;;;;;12.88;6.15;;;;;;;11.23;49.49;102787.94;5087916;28;20032;-61
2022/04/28 00:11:54;;;;;;;10.40;5.72;;;;;;;11.25;49.07;102792.25;5086662;28;20379;-62
2022/04/28 00:14:20;;;;;;;13.45;5.80;;;;;;;11.18;49.23;102793.28;5078323;28;20024;-62
2022/04/28 00:16:46;;;;;;;11.70;6.28;;;;;;;11.07;49.50;102795.59;5085263;28;20072;-62
2022/04/28 00:19:11;;;;;;;12.68;6.13;;;;;;;11.08;49.56;102799.25;5086675;28;20202;-62
2022/04/28 00:21:37;;;;;;;9.60;5.90;;;;;;;11.04;49.46;102793.28;5087373;28;20103;-62
2022/04/28 00:24:02;;;;;;;15.23;6.00;;;;;;;11.00;49.60;102789.19;5089610;28;20043;-62
2022/04/28 00:26:27;;;;;;;12.57;6.22;;;;;;;10.93;49.86;102796.66;5087385;28;20391;-62
2022/04/28 00:28:52;;;;;;;8.95;6.03;;;;;;;10.97;49.84;102792.38;5088091;28;20101;-62
2022/04/28 00:31:18;;;;;;;9.43;5.72;;;;;;;10.88;50.13;102795.53;5088653;28;20036;-62
2022/04/28 00:33:43;;;;;;;13.05;6.30;;;;;;;10.95;49.74;102794.50;5090183;28;20660;-62
2022/04/28 00:36:09;;;;;;;14.00;6.40;;;;;;;10.90;49.92;102793.44;5086749;28;20035;-62
2022/04/28 00:38:35;;;;;;;12.90;6.25;;;;;;;10.88;50.09;102790.84;5089407;28;20056;-63
2022/04/28 00:41:01;;;;;;;10.80;6.18;;;;;;;10.87;49.93;102791.91;5078661;28;20055;-62
2022/04/28 00:43:30;;;;;;;11.15;6.22;;;;;;;10.85;50.02;102788.50;5080824;28;20032;-62
2022/04/28 00:45:55;;;;;;;13.00;5.72;;;;;;;10.88;50.06;102785.28;5086608;28;20046;-62
2022/04/28 00:51:07;;;;;;;10.15;6.00;;;;;;;10.77;50.24;102786.75;5089818;28;20086;-62
2022/04/28 00:53:41;;;;;;;9.93;6.22;;;;;;;10.74;50.04;102787.16;5091834;28;20379;-62
2022/04/28 00:56:09;;;;;;;17.17;6.85;;;;;;;10.69;50.14;102786.94;5092239;28;20036;-62
2022/04/28 00:58:36;;;;;;;10.85;5.93;;;;;;;10.66;50.56;102783.72;5090097;28;20140;-62
2022/04/28 01:01:03;;;;;;;11.82;6.30;;;;;;;10.64;50.46;102783.03;5090460;28;20518;-62
2022/04/28 01:03:30;;;;;;;10.85;6.13;;;;;;;10.63;50.52;102778.56;5089632;28;20035;-62
2022/04/28 01:05:56;;;;;;;11.52;6.25;;;;;;;10.60;50.51;102778.97;5089571;28;20035;-62
2022/04/28 01:08:34;;;;;;;12.55;6.03;;;;;;;10.60;50.71;102790.06;5091380;28;20475;-62
2022/04/28 01:11:00;;;;;;;10.65;6.32;;;;;;;10.54;50.84;102784.28;5090078;28;20044;-62
2022/04/28 01:13:26;;;;;;;14.48;7.03;;;;;;;10.48;50.78;102785.09;5085555;28;20586;-62
2022/04/28 01:15:51;;;;;;;10.02;6.40;;;;;;;10.37;51.37;102785.69;5092111;28;20071;-62
2022/04/28 01:18:17;;;;;;;14.27;6.32;;;;;;;10.36;51.35;102783.97;5091045;28;20036;-62
2022/04/28 01:20:43;;;;;;;15.07;6.50;;;;;;;10.35;50.99;102786.97;5090602;28;20044;-62
2022/04/28 01:23:09;;;;;;;14.27;6.60;;;;;;;10.26;51.51;102792.69;5092683;28;20387;-62
2022/04/28 01:25:35;;;;;;;12.15;6.50;;;;;;;10.23;51.26;102786.66;5089065;28;20075;-62
2022/04/28 01:28:00;;;;;;;13.90;6.93;;;;;;;10.14;51.63;102793.41;5077801;28;20157;-62
2022/04/28 01:30:26;;;;;;;13.88;6.97;;;;;;;10.13;51.90;102789.75;5076382;28;20097;-62
2022/04/28 01:32:53;;;;;;;11.15;6.60;;;;;;;10.12;52.08;102795.53;5084148;28;20043;-62
2022/04/28 01:35:18;;;;;;;9.82;6.15;;;;;;;10.08;51.84;102790.38;5089461;28;20020;-62
2022/04/28 01:37:43;;;;;;;10.68;6.47;;;;;;;10.07;52.02;102794.22;5090817;28;20107;-62
2022/04/28 01:40:11;;;;;;;12.43;6.53;;;;;;;10.05;51.99;102787.16;5086805;28;20133;-62
2022/04/28 01:42:39;;;;;;;16.88;7.15;;;;;;;10.04;52.33;102800.16;5091735;28;20536;-62
2022/04/28 01:45:08;;;;;;;13.13;7.00;;;;;;;10.07;51.84;102788.69;5092002;28;20028;-62
2022/04/28 01:47:34;;;;;;;12.38;6.65;;;;;;;10.05;51.79;102790.78;5091309;28;20382;-63
2022/04/28 01:49:59;;;;;;;13.70;6.60;;;;;;;10.05;52.23;102785.22;5090884;28;20119;-62
2022/04/28 01:55:09;;;;;;;12.68;6.68;;;;;;;10.12;51.49;102785.28;5083050;28;20047;-62
2022/04/28 01:57:34;;;;;;;13.13;6.57;;;;;;;10.18;51.58;102780.81;5091987;28;20020;-62
2022/04/28 02:00:00;;;;;;;12.73;7.00;;;;;;;10.15;51.79;102786.81;5078296;28;20035;-62
2022/04/28 02:02:28;;;;;;;11.02;6.55;;;;;;;10.23;51.48;102790.28;5091491;28;20503;-62
2022/04/28 02:04:58;;;;;;;12.02;7.00;;;;;;;9.96;52.02;102786.44;5080960;28;20031;-62
2022/04/28 02:07:24;;;;;;;7.13;6.10;;;;;;;9.95;52.07;102793.06;5087423;28;20792;-62
2022/04/28 02:09:50;;;;;;;12.73;7.35;;;;;;;9.88;52.24;102794.94;5089120;28;20038;-62
2022/04/28 02:12:15;;;;;;;13.07;6.88;;;;;;;9.79;52.82;102797.00;5091177;28;20035;-62
2022/04/28 02:14:41;;;;;;;12.73;6.82;;;;;;;9.75;52.73;102795.69;5089256;28;20036;-62
2022/04/28 02:17:06;;;;;;;13.63;6.85;;;;;;;9.78;52.49;102786.09;5090101;28;20032;-62
2022/04/28 02:19:32;;;;;;;13.50;6.25;;;;;;;9.84;52.40;102790.84;5087676;28;20027;-62
2022/04/28 02:21:58;;;;;;;14.00;7.82;;;;;;;9.73;53.04;102785.84;5088964;28;20036;-62
2022/04/28 02:24:23;;;;;;;14.75;6.50;;;;;;;9.74;53.17;102793.94;5089213;28;20047;-62
2022/04/28 02:26:48;;;;;;;13.23;7.00;;;;;;;9.67;52.58;102789.41;5089155;28;20047;-62
2022/04/28 02:29:14;;;;;;;13.68;7.13;;;;;;;9.70;52.96;102797.31;5075760;28;20021;-62
2022/04/28 02:31:39;;;;;;;12.45;6.88;;;;;;;9.72;52.81;102792.44;5088205;28;20463;-62
2022/04/28 02:34:04;;;;;;;13.52;7.35;;;;;;;9.67;52.68;102792.16;5089405;28;20111;-62
2022/04/28 02:36:30;;;;;;;14.77;7.32;;;;;;;9.57;52.87;102785.06;5088579;28;20028;-62
2022/04/28 02:38:55;;;;;;;16.65;7.38;;;;;;;9.54;52.87;102785.44;5089771;28;20032;-62
2022/04/28 02:41:21;;;;;;;13.85;7.78;;;;;;;9.62;53.08;102787.22;5078107;28;20033;-62
2022/04/28 02:43:50;;;;;;;14.70;7.57;;;;;;;9.56;53.67;102788.91;5090590;28;20032;-61
2022/04/28 02:46:16;;;;;;;13.13;7.55;;;;;;;9.50;53.20;102786.91;5088795;28;20024;-61
2022/04/28 02:48:41;;;;;;;15.65;8.40;;;;;;;9.47;53.15;102784.56;5091304;28;20043;-61
2022/04/28 02:51:07;;;;;;;12.30;7.65;;;;;;;9.51;53.27;102782.22;5079091;28;20766;-61
2022/04/28 02:53:34;;;;;;;15.30;7.95;;;;;;;9.61;53.00;102784.66;5070785;28;20076;-61
2022/04/28 02:55:59;;;;;;;15.27;7.80;;;;;;;9.59;52.90;102785.72;5070627;28;20035;-61
2022/04/28 02:58:24;;;;;;;11.15;7.25;;;;;;;9.67;53.11;102781.97;5071487;28;20036;-61
2022/04/28 03:00:50;;;;;;;13.10;7.38;;;;;;;9.56;53.09;102783.34;5090331;28;20058;-61
2022/04/28 03:03:15;;;;;;;13.52;7.30;;;;;;;9.58;53.26;102788.69;5090734;28;20028;-61
2022/04/28 03:11:11;;;;;;;12.05;7.05;;;;;;;9.36;53.56;102785.09;5090118;28;20055;-62
2022/04/28 03:13:38;;;;;;;13.85;7.55;;;;;;;9.41;53.07;102787.25;5090303;28;20028;-61
2022/04/28 03:16:07;;;;;;;13.82;8.15;;;;;;;9.42;53.79;102792.59;5089910;28;20024;-62
2022/04/28 03:18:33;;;;;;;14.30;7.88;;;;;;;9.43;52.97;102787.91;5089113;28;20031;-62
2022/04/28 03:21:02;;;;;;;17.27;7.75;;;;;;;9.47;53.42;102790.09;5081641;28;20479;-62
2022/04/28 03:23:27;;;;;;;12.77;7.43;;;;;;;9.37;53.24;102784.03;5089550;28;20071;-62
2022/04/28 03:25:53;;;;;;;13.75;8.15;;;;;;;9.39;52.69;102790.19;5089458;28;20079;-62
2022/04/28 03:28:22;;;;;;;13.73;7.70;;;;;;;9.44;53.34;102790.50;5086260;28;20688;-61
2022/04/28 03:30:48;;;;;;;14.98;8.13;;;;;;;9.35;53.24;102791.66;5089114;28;20479;-61
2022/04/28 03:33:14;;;;;;;15.05;7.78;;;;;;;9.34;53.18;102784.41;5087658;28;20028;-62
2022/04/28 03:35:40;;;;;;;18.23;7.85;;;;;;;9.30;53.42;102792.25;5086272;28;20028;-62
2022/04/28 03:38:07;;;;;;;13.10;7.55;;;;;;;9.41;53.37;102788.09;5080005;28;20036;-62
2022/04/28 03:40:32;;;;;;;14.00;8.30;;;;;;;9.32;53.24;102792.06;5084569;28;20471;-62
2022/04/28 03:42:58;;;;;;;15.80;7.70;;;;;;;9.32;54.07;102792.06;5086123;28;20031;-62
2022/04/28 03:45:26;;;;;;;13.63;8.57;;;;;;;9.34;53.61;102787.19;5087372;28;20024;-62
2022/04/28 03:47:51;;;;;;;14.55;8.20;;;;;;;9.35;53.52;102791.66;5088109;28;20020;-62
2022/04/28 03:50:17;;;;;;;13.23;8.45;;;;;;;9.33;53.27;102791.00;5086124;28;20031;-62
2022/04/28 03:52:42;;;;;;;15.93;8.25;;;;;;;9.28;53.40;102793.53;5089580;28;20028;-62
2022/04/28 03:55:09;;;;;;;15.48;8.52;;;;;;;9.24;53.38;102789.44;5089825;28;20020;-62
2022/04/28 03:57:34;;;;;;;14.45;8.07;;;;;;;9.21;53.83;102800.91;5088220;28;20028;-62
2022/04/28 04:00:00;;;;;;;13.20;8.45;;;;;;;9.27;53.63;102811.19;5087493;28;20489;-62
2022/04/28 04:02:28;;;;;;;17.02;8.77;;;;;;;9.22;54.00;102806.25;5089314;28;20112;-62
2022/04/28 04:04:53;;;;;;;17.25;8.23;;;;;;;9.18;54.10;102806.84;5090106;28;20042;-61
2022/04/28 04:07:18;;;;;;;15.30;8.13;;;;;;;9.15;53.72;102808.06;5077945;28;20036;-63
2022/04/28 04:09:44;;;;;;;16.23;8.48;;;;;;;9.23;53.90;102807.09;5090501;28;20035;-60
2022/04/28 04:12:09;;;;;;;18.38;8.95;;;;;;;9.24;53.65;102812.47;5087476;28;20510;-61
2022/04/28 04:14:35;;;;;;;12.25;8.45;;;;;;;9.21;53.98;102801.75;5089677;28;20060;-61
2022/04/28 04:17:00;;;;;;;14.70;9.07;;;;;;;9.17;53.74;102810.66;5085990;28;20356;-62
2022/04/28 04:19:25;;;;;;;16.65;9.15;;;;;;;9.24;54.24;102811.59;5086842;28;20044;-61
2022/04/28 04:21:53;;;;;;;13.27;9.43;;;;;;;9.13;54.08;102804.66;5085994;28;20093;-61
2022/04/28 04:24:18;;;;;;;17.70;9.68;;;;;;;9.19;54.30;102814.09;5088946;28;20020;-61
2022/04/28 04:26:46;;;;;;;17.50;9.30;;;;;;;9.12;54.60;102811.25;5093958;28;20483;-61
2022/04/28 04:29:12;;;;;;;14.88;9.43;;;;;;;9.12;54.48;102808.50;5087074;28;20040;-61
2022/04/28 04:34:23;;;;;;;15.13;8.93;;;;;;;9.17;54.22;102819.84;5094090;28;20085;-61
2022/04/28 04:36:48;;;;;;;19.02;10.32;;;;;;;9.14;54.09;102811.91;5092850;28;20024;-61
2022/04/28 04:39:13;;;;;;;18.20;9.48;;;;;;;9.10;54.41;102822.50;5077224;28;20025;-62
2022/04/28 04:41:38;;;;;;;16.63;10.35;;;;;;;9.14;54.15;102811.06;5093421;28;20031;-61
2022/04/28 04:44:04;;;;;;;15.65;9.32;;;;;;;9.14;54.20;102819.38;5091107;28;20028;-62
2022/04/28 04:46:29;;;;;;;15.48;9.68;;;;;;;9.04;54.29;102816.91;5091072;28;20445;-62
2022/04/28 04:48:54;;;;;;;17.63;10.02;;;;;;;9.04;54.65;102822.47;5092967;28;20026;-62
2022/04/28 04:51:20;;;;;;;15.85;9.30;;;;;;;9.12;54.51;102829.75;5093697;28;20031;-62
2022/04/28 04:53:45;;;;;;;15.85;9.80;;;;;;;9.07;54.61;102825.66;5093191;28;20047;-63
2022/04/28 04:56:10;;;;;;;16.45;10.15;;;;;;;9.07;54.97;102830.34;5092155;28;20122;-62
2022/04/28 04:58:36;;;;;;;17.00;9.52;;;;;;;9.09;54.45;102831.03;5081798;28;20387;-62
2022/04/28 05:01:01;;;;;;;17.98;9.95;;;;;;;9.07;54.59;102833.97;5072720;28;20051;-62
2022/04/28 05:03:27;;;;;;;17.38;9.82;;;;;;;9.05;55.17;102830.56;5072246;28;20119;-62
2022/04/28 05:05:53;;;;;;;16.65;10.40;;;;;;;8.99;55.07;102836.88;5081288;28;20032;-62
2022/04/28 05:08:18;;;;;;;20.30;10.27;;;;;;;9.02;55.29;102833.72;5092228;28;20114;-62
2022/04/28 05:10:43;;;;;;;16.58;10.25;;;;;;;9.03;55.22;102840.97;5083052;28;20121;-61
2022/04/28 05:13:09;;;;;;;15.52;9.88;;;;;;;9.04;54.77;102856.56;5092081;28;20028;-62
2022/04/28 05:15:34;;;;;;;18.50;10.43;;;;;;;9.18;54.51;102846.47;5090827;28;20115;-62
2022/04/28 05:17:59;;;;;;;15.82;9.93;;;;;;;9.14;54.54;102861.78;5087616;28;20523;-61
2022/04/28 05:20:25;;;;;;;18.88;10.00;;;;;;;9.24;54.84;102861.47;5091802;28;20124;-62
2022/04/28 05:22:50;;;;;;;16.63;10.20;;;;;;;9.26;54.54;102865.75;5091575;28;20535;-62
2022/04/28 05:25:15;;;;;;;16.90;10.63;;;;;;;9.32;54.41;102864.13;5087811;28;20092;-62
2022/04/28 05:27:41;;;;;;;20.52;10.20;;;;;;;9.27;54.97;102861.06;5090885;28;20032;-61
2022/04/28 05:30:06;;;;;;;17.95;10.32;;;;;;;9.36;54.34;102859.06;5089068;28;20038;-61
2022/04/28 05:32:32;;;;;;;18.75;11.85;;;;;;;9.40;54.57;102868.69;5088866;28;20054;-61
2022/04/28 05:34:59;;;;;;;19.65;10.52;;;;;;;9.40;54.01;102871.47;5087013;28;20039;-62
2022/04/28 05:37:25;;;;;;;17.10;10.50;;;;;;;9.40;54.70;102866.78;5088913;28;20521;-61
2022/04/28 05:39:51;;;;;;;21.98;11.43;;;;;;;9.43;54.36;102874.72;5087121;28;20036;-62
2022/04/28 05:42:16;;;;;;;18.48;11.57;;;;;;;9.35;54.64;102874.78;5083604;28;20024;-62
2022/04/28 05:47:25;;;;;;;18.00;11.02;;;;;;;9.43;54.93;102890.44;5090508;28;20506;-61
2022/04/28 05:49:54;;;;;;;19.67;11.48;;;;;;;9.41;54.79;102892.56;5091395;28;20043;-62
2022/04/28 05:52:19;;;;;;;17.08;11.60;;;;;;;9.46;55.30;102890.91;5090609;28;20024;-61
2022/04/28 05:54:47;;;;;;;19.80;11.75;;;;;;;9.43;55.05;102890.44;5087049;28;20025;-62
2022/04/28 05:57:13;;;;;;;17.60;11.93;;;;;;;9.47;55.43;102884.34;5080862;28;20032;-62
2022/04/28 05:59:39;;;;;;;22.38;12.77;;;;;;;9.49;55.28;102898.00;5087825;28;20046;-62
2022/04/28 06:02:05;;;;;;;25.58;12.63;;;;;;;9.46;55.42;102893.69;5087494;28;20040;-61
2022/04/28 06:04:30;;;;;;;23.65;12.40;;;;;;;9.52;55.23;102897.63;5088141;28;20021;-62
2022/04/28 06:06:55;;;;;;;22.40;12.32;;;;;;;9.57;55.08;102898.72;5082483;28;20024;-62
2022/04/28 06:09:21;;;;;;;17.85;11.82;;;;;;;9.55;55.72;102898.09;5084293;28;20024;-62
2022/04/28 06:11:46;;;;;;;19.17;11.88;;;;;;;9.54;55.83;102909.34;5078191;28;20039;-62
2022/04/28 06:14:11;;;;;;;19.10;11.90;;;;;;;9.63;55.57;102907.31;5085879;28;20028;-62
2022/04/28 06:16:36;;;;;;;19.40;12.30;;;;;;;9.77;55.32;102906.41;5084718;28;20032;-62
2022/04/28 06:19:02;;;;;;;21.90;12.15;;;;;;;9.87;55.40;102915.25;5087383;28;20032;-62
2022/04/28 06:21:27;;;;;;;16.30;8.63;;;;;;;10.24;59.15;102910.47;5084612;28;20081;-62
2022/04/28 06:23:52;;;;;;;8.25;5.65;;;;;;;10.84;60.64;102920.09;5092271;28;20456;-63
2022/04/28 06:26:17;;;;;;;8.07;6.10;;;;;;;11.21;59.22;102918.81;5088776;28;20028;-62
2022/04/28 06:28:43;;;;;;;14.90;7.47;;;;;;;11.58;56.22;102927.72;5090519;28;20040;-62
2022/04/28 06:31:08;;;;;;;17.75;11.80;;;;;;;11.47;53.10;102919.97;5090446;28;20109;-61
2022/04/28 06:33:33;;;;;;;10.43;7.43;;;;;;;11.80;53.88;102922.88;5090084;28;20479;-61
2022/04/28 06:35:59;;;;;;;15.52;9.07;;;;;;;11.98;53.79;102927.84;5088921;28;20032;-62
2022/04/28 06:38:25;;;;;;;15.68;9.00;;;;;;;12.01;51.93;102924.63;5078609;28;20067;-62
2022/04/28 06:40:50;;;;;;;17.05;9.65;;;;;;;12.27;52.43;102923.81;5083137;28;20036;-62
2022/04/28 06:43:19;;;;;;;21.25;9.98;;;;;;;12.38;50.88;102920.38;5080324;28;20442;-62
2022/04/28 06:46:11;;;;;;;18.85;10.27;;;;;;;12.45;50.34;102923.16;5091420;28;20057;-61
2022/04/28 06:48:29;;;;;;;18.40;8.77;;;;;;;12.72;50.23;102921.19;5078668;28;20035;-61
2022/04/28 06:50:55;;;;;;;19.08;9.20;;;;;;;12.74;50.04;102919.91;5082159;28;20043;-61
2022/04/28 06:53:20;;;;;;;13.35;8.23;;;;;;;12.87;49.60;102924.59;5086519;28;20505;-62
2022/04/28 06:55:48;;;;;;;18.83;10.32;;;;;;;12.73;48.63;102926.56;5086626;28;20093;-62
2022/04/28 06:58:13;;;;;;;15.85;7.93;;;;;;;13.02;49.24;102927.97;5087366;28;20402;-62
2022/04/28 07:00:39;;;;;;;17.15;8.95;;;;;;;12.92;48.30;102935.94;5077032;28;20037;-63
2022/04/28 07:03:04;;;;;;;17.83;8.15;;;;;;;13.16;48.67;102939.06;5088075;28;20036;-63
2022/04/28 07:05:29;;;;;;;14.55;8.10;;;;;;;13.08;47.99;102936.53;5090934;28;20035;-63
2022/04/28 07:07:55;;;;;;;19.52;7.82;;;;;;;13.22;48.31;102938.22;5090020;28;20078;-63
2022/04/28 07:10:21;;;;;;;17.02;8.52;;;;;;;13.36;47.84;102948.28;5077145;28;20036;-63
2022/04/28 07:12:46;;;;;;;20.33;9.40;;;;;;;13.40;47.93;102948.66;5087831;28;20510;-63
2022/04/28 07:15:11;;;;;;;19.60;9.77;;;;;;;13.27;47.41;102942.06;5089052;28;20103;-64
2022/04/28 07:17:37;;;;;;;15.23;9.70;;;;;;;13.29;47.61;102943.81;5088154;28;20055;-64
2022/04/28 07:20:02;;;;;;;15.05;8.75;;;;;;;13.40;47.84;102957.03;5084318;28;20028;-64
2022/04/28 07:22:28;;;;;;;18.88;10.25;;;;;;;13.41;46.52;102964.34;5090792;28;20032;-64
2022/04/28 07:24:53;;;;;;;14.70;8.27;;;;;;;13.49;47.06;102964.09;5086056;28;20032;-62
2022/04/28 07:27:18;;;;;;;15.02;7.55;;;;;;;13.58;48.05;102957.19;5085570;28;20398;-64
2022/04/28 07:29:44;;;;;;;14.82;8.75;;;;;;;13.49;47.88;102956.59;5071563;28;20036;-64
2022/04/28 07:32:09;;;;;;;14.98;7.35;;;;;;;13.72;48.38;102964.41;5069697;28;20518;-64
2022/04/28 07:34:35;;;;;;;17.52;9.25;;;;;;;13.48;46.39;102966.03;5069687;28;20017;-64
2022/04/28 07:37:01;;;;;;;20.02;9.38;;;;;;;13.68;46.57;102967.88;5082330;28;20066;-65
2022/04/28 07:39:26;;;;;;;17.08;8.00;;;;;;;13.94;46.61;102973.28;5088656;28;20079;-62
2022/04/28 07:41:54;;;;;;;18.85;8.02;;;;;;;14.02;46.58;102972.19;5081197;28;20516;-63
2022/04/28 07:44:20;;;;;;;16.00;9.68;;;;;;;13.97;45.99;102972.00;5100038;28;20394;-64
2022/04/28 07:46:45;;;;;;;17.23;8.90;;;;;;;14.04;45.91;102972.81;5100613;28;20028;-63
2022/04/28 07:49:13;;;;;;;14.77;7.03;;;;;;;14.30;45.65;102977.34;5086683;28;20031;-63
2022/04/28 07:51:38;;;;;;;18.40;7.57;;;;;;;14.25;46.55;102980.81;5089035;28;20092;-64
2022/04/28 07:54:04;;;;;;;14.13;8.65;;;;;;;14.18;45.24;102979.16;5089783;28;20110;-65
2022/04/28 07:56:30;;;;;;;19.50;8.45;;;;;;;14.31;45.45;102983.81;5090156;28;20020;-65
2022/04/28 07:58:55;;;;;;;17.45;7.00;;;;;;;14.56;45.74;102981.06;5089254;28;20044;-65
2022/04/28 08:01:21;;;;;;;17.35;7.80;;;;;;;14.63;45.17;102984.66;5089851;28;20504;-64
2022/04/28 08:03:46;;;;;;;17.95;9.07;;;;;;;14.56;44.28;102986.66;5079132;28;20040;-65
2022/04/28 08:06:13;;;;;;;16.25;9.00;;;;;;;14.64;44.88;102987.22;5093451;28;20115;-65
2022/04/28 08:08:39;;;;;;;18.63;7.60;;;;;;;14.74;44.73;102983.91;5078162;28;20078;-62
2022/04/28 08:11:05;;;;;;;12.38;6.10;;;;;;;15.08;44.83;102988.06;5086046;28;20032;-64
2022/04/28 08:13:31;;;;;;;11.43;7.85;;;;;;;14.98;44.11;102991.41;5097859;28;20459;-64
2022/04/28 08:15:57;;;;;;;14.52;7.55;;;;;;;14.98;44.40;102998.94;5092964;28;20063;-64
2022/04/28 08:18:24;;;;;;;17.08;8.45;;;;;;;14.90;43.29;102994.50;5070059;28;20081;-64
2022/04/28 08:20:49;;;;;;;13.45;6.95;;;;;;;15.09;43.35;102997.31;5071231;28;20035;-64
2022/04/28 08:23:14;;;;;;;14.75;6.70;;;;;;;15.29;43.41;103002.69;5089796;28;20032;-64
2022/04/28 08:25:39;;;;;;;11.95;5.50;;;;;;;15.42;43.26;102997.81;5089720;28;20052;-64
2022/04/28 08:28:05;;;;;;;11.00;5.43;;;;;;;15.49;42.82;103002.47;5089522;28;20040;-64
2022/04/28 08:30:30;;;;;;;15.68;6.85;;;;;;;15.50;43.15;103005.03;5090252;28;20051;-64
2022/04/28 08:32:56;;;;;;;15.90;7.50;;;;;;;15.54;42.34;103013.81;5090064;28;20071;-64
2022/04/28 08:35:21;;;;;;;12.55;6.70;;;;;;;15.58;42.09;103003.88;5089225;28;20024;-64
2022/04/28 08:37:47;;;;;;;14.27;8.00;;;;;;;15.48;41.92;103015.59;5087263;28;20060;-64
2022/04/28 08:40:12;;;;;;;13.77;6.10;;;;;;;15.62;42.26;103013.50;5078109;28;20089;-64
2022/04/28 08:42:40;;;;;;;11.40;5.82;;;;;;;15.75;42.07;103002.16;5089357;28;20039;-64
2022/04/28 08:45:05;;;;;;;13.23;6.50;;;;;;;15.76;41.31;103014.22;5073610;28;20020;-64
2022/04/28 08:47:31;;;;;;;13.23;6.78;;;;;;;15.84;41.36;103014.75;5081174;28;20057;-63
2022/04/28 08:50:00;;;;;;;13.18;6.28;;;;;;;15.98;41.49;103008.97;5089544;28;20043;-63
2022/04/28 08:52:26;;;;;;;14.52;7.28;;;;;;;15.94;40.55;103003.84;5089370;28;20027;-64
2022/04/28 08:54:54;;;;;;;10.95;6.47;;;;;;;15.97;41.33;103004.47;5090223;28;20036;-64
2022/04/28 08:57:21;;;;;;;16.67;9.23;;;;;;;15.88;41.38;103013.19;5087511;28;20035;-63
2022/04/28 08:59:48;;;;;;;14.60;6.30;;;;;;;16.04;41.66;103005.22;5090076;28;20036;-64
2022/04/28 09:02:13;;;;;;;18.02;8.07;;;;;;;15.94;41.19;103006.63;5088526;28;20044;-63
2022/04/28 09:04:39;;;;;;;16.42;8.60;;;;;;;15.89;41.15;103009.31;5090297;28;20036;-63
2022/04/28 09:07:07;;;;;;;15.52;7.95;;;;;;;15.94;41.34;103012.22;5089663;28;20479;-64
2022/04/28 09:09:33;;;;;;;16.40;9.00;;;;;;;15.92;41.55;103005.19;5089077;28;20467;-63
2022/04/28 09:12:01;;;;;;;15.80;6.78;;;;;;;16.18;41.52;103007.56;5091902;28;20073;-64
2022/04/28 09:14:26;;;;;;;16.90;9.95;;;;;;;16.10;41.15;103004.25;5093302;28;20030;-64
2022/04/28 09:16:59;;;;;;;20.50;8.02;;;;;;;16.31;40.64;103014.06;5092615;28;20024;-64
2022/04/28 09:19:30;;;;;;;13.18;8.93;;;;;;;16.39;40.81;102996.94;5093047;28;20035;-64
2022/04/28 09:21:59;;;;;;;17.00;7.43;;;;;;;16.58;40.59;103003.28;5092636;28;20744;-64
2022/04/28 09:24:26;;;;;;;12.82;6.38;;;;;;;16.66;40.50;103005.75;5086107;28;20054;-62
2022/04/28 09:26:55;;;;;;;10.68;5.90;;;;;;;16.80;40.18;103010.06;5091124;28;20115;-64
2022/04/28 09:29:22;;;;;;;15.30;6.50;;;;;;;16.87;39.95;103001.53;5092247;28;20035;-64
2022/04/28 09:31:50;;;;;;;16.05;6.85;;;;;;;16.77;39.88;102995.66;5086245;28;20432;-65
2022/04/28 09:34:20;;;;;;;11.88;6.97;;;;;;;16.95;39.74;102989.09;5071425;28;20031;-64
2022/04/28 09:36:47;;;;;;;12.63;7.78;;;;;;;17.04;39.65;102988.47;5070173;28;20049;-64
2022/04/28 09:42:29;;;;;;;13.05;7.32;;;;;;;17.01;39.80;102999.34;5083764;28;20032;-62
2022/04/28 09:44:49;;;;;;;13.75;8.25;;;;;;;16.86;39.78;102985.81;5087707;28;20054;-64
2022/04/28 09:47:16;;;;;;;16.42;7.85;;;;;;;16.71;38.91;102993.81;5084408;28;20111;-64
2022/04/28 09:49:41;;;;;;;13.73;8.23;;;;;;;16.73;39.35;102989.69;5099175;28;20027;-65
2022/04/28 09:52:09;;;;;;;17.80;7.05;;;;;;;16.99;39.87;102979.94;5088162;28;20032;-64
2022/04/28 09:54:36;;;;;;;17.98;10.02;;;;;;;16.69;38.78;102992.09;5088452;28;20028;-64
2022/04/28 09:57:03;;;;;;;12.45;6.43;;;;;;;16.97;39.07;102984.09;5084217;28;20039;-64
2022/04/28 09:59:29;;;;;;;14.45;9.13;;;;;;;16.72;38.19;102989.91;5084130;28;20029;-65
2022/04/28 10:01:58;;;;;;;8.73;6.10;;;;;;;16.92;39.34;102985.69;5088218;28;20044;-66
2022/04/28 10:04:24;;;;;;;13.23;5.57;;;;;;;17.10;38.95;102984.69;5088941;28;20814;-66
2022/04/28 10:06:50;;;;;;;9.55;5.63;;;;;;;17.13;38.62;102974.91;5085422;28;20031;-67
2022/04/28 10:09:17;;;;;;;16.17;8.07;;;;;;;16.97;38.15;102967.25;5086174;28;20448;-67
2022/04/28 10:11:43;;;;;;;13.35;5.88;;;;;;;17.18;38.53;102969.44;5088747;28;20066;-66
2022/04/28 10:14:11;;;;;;;17.00;9.43;;;;;;;16.92;37.37;102977.25;5085130;28;20043;-66
2022/04/28 10:16:38;;;;;;;14.40;6.22;;;;;;;17.24;38.73;102970.41;5087875;28;20036;-66
2022/04/28 10:19:10;;;;;;;8.88;5.25;;;;;;;17.34;38.65;102971.50;5092086;28;20019;-65
2022/04/28 10:21:53;;;;;;;15.02;9.05;;;;;;;17.01;36.94;102969.31;5088188;28;20044;-65
2022/04/28 10:33:05;;;;;;;15.00;7.38;;;;;;;17.25;37.95;102967.38;5085377;28;20039;-64
2022/04/28 10:35:35;;;;;;;11.93;6.72;;;;;;;17.36;38.59;102968.41;5083537;28;20071;-64
2022/04/28 10:38:12;;;;;;;18.85;9.30;;;;;;;17.12;38.07;102976.88;5089946;28;20020;-65
2022/04/28 10:40:40;;;;;;;12.45;6.68;;;;;;;17.35;38.12;102958.31;5087733;28;20383;-64
2022/04/28 10:43:23;;;;;;;13.00;8.30;;;;;;;17.31;38.21;102960.75;5090938;28;20028;-65
2022/04/28 10:45:49;;;;;;;14.63;7.25;;;;;;;17.31;38.01;102959.91;5098241;28;20072;-64
2022/04/28 10:48:28;;;;;;;11.80;6.65;;;;;;;17.34;37.83;102948.19;5098680;27;20387;-65
2022/04/28 10:51:05;;;;;;;12.85;7.45;;;;;;;17.35;37.98;102949.88;5089366;28;20043;-65
2022/04/28 10:53:32;;;;;;;14.45;7.68;;;;;;;17.41;37.76;102949.75;5094530;28;20509;-65
2022/04/28 10:56:09;;;;;;;14.10;7.85;;;;;;;17.41;38.01;102940.47;5090616;28;20110;-65
2022/04/28 10:58:35;;;;;;;13.27;8.55;;;;;;;17.46;37.32;102948.16;5087618;28;20277;-63
2022/04/28 11:01:01;;;;;;;15.40;8.93;;;;;;;17.40;37.45;102947.19;5095808;28;20415;-64
2022/04/28 11:03:42;;;;;;;17.83;9.38;;;;;;;17.32;37.83;102948.41;5087774;28;20034;-64
2022/04/28 11:06:11;;;;;;;12.55;7.93;;;;;;;17.45;37.83;102950.09;5088494;28;20032;-64
2022/04/28 11:08:44;;;;;;;13.98;9.30;;;;;;;17.32;37.55;102948.41;5089015;28;20028;-65
2022/04/28 11:11:12;;;;;;;14.48;6.75;;;;;;;17.49;37.44;102937.28;5098763;28;20028;-64
2022/04/28 11:13:43;;;;;;;13.18;9.63;;;;;;;17.32;36.89;102937.19;5098723;28;20988;-64
2022/04/28 11:16:12;;;;;;;16.98;10.18;;;;;;;17.30;37.41;102946.97;5095704;28;20043;-65
2022/04/28 11:18:38;;;;;;;20.13;9.88;;;;;;;17.31;37.96;102943.06;5100512;28;20038;-65
2022/04/28 11:21:04;;;;;;;14.35;8.95;;;;;;;17.36;37.47;102935.59;5095129;28;20118;-66
2022/04/28 11:23:35;;;;;;;12.60;8.88;;;;;;;17.29;37.49;102936.81;5087743;28;20451;-65
2022/04/28 11:26:02;;;;;;;13.60;9.50;;;;;;;17.30;37.57;102930.13;5087828;28;20040;-66
2022/04/28 11:28:28;;;;;;;18.13;7.90;;;;;;;17.37;37.74;102930.81;5088393;28;20042;-65
2022/04/28 11:30:58;;;;;;;15.50;8.73;;;;;;;17.53;38.51;102929.22;5095507;28;20082;-64
2022/04/28 11:33:23;;;;;;;11.93;9.00;;;;;;;17.61;37.81;102931.63;5087013;28;20028;-66
2022/04/28 11:35:49;;;;;;;15.30;8.32;;;;;;;17.67;37.79;102931.44;5111812;28;20485;-65
2022/04/28 11:38:22;;;;;;;14.48;10.05;;;;;;;17.70;37.36;102930.09;5083888;28;20471;-65
2022/04/28 11:40:58;;;;;;;12.95;9.93;;;;;;;17.74;37.45;102933.28;5074441;28;20044;-65
2022/04/28 11:43:31;;;;;;;11.73;7.03;;;;;;;17.88;37.60;102932.75;5094664;28;20130;-65
2022/04/28 11:45:58;;;;;;;15.10;8.48;;;;;;;17.99;37.31;102918.88;5075378;28;20028;-65